Time;durP1;ratioP1;P1;durP2;ratioP2;P2;SDS_P1;SDS_P2;PMS_P1;PMS_P2;Temp;Humidity;BMP_temperature;BMP_pressure;BME280_temperature;BME280_humidity;BME280_pressure;Samples;Min_cycle;Max_cycle;Signal;HPM_P1;HPM_P2
2022/03/07 00:01:02;;;;;;;9.55;6.80;;;;;;;4.09;37.21;101355.88;4169752;28;20040;-62
2022/03/07 00:03:07;;;;;;;9.57;6.80;;;;;;;4.19;37.72;101358.16;4178779;28;20048;-62
2022/03/07 00:05:10;;;;;;;10.35;6.43;;;;;;;4.27;37.09;101350.88;4174329;28;20041;-62
2022/03/07 00:07:12;;;;;;;8.82;6.85;;;;;;;4.02;37.08;101353.00;4172671;28;20099;-62
2022/03/07 00:09:16;;;;;;;8.80;6.90;;;;;;;4.33;36.84;101361.50;4165702;28;20072;-62
2022/03/07 00:11:19;;;;;;;16.73;6.78;;;;;;;4.03;36.85;101364.19;4164400;28;20049;-62
2022/03/07 00:13:22;;;;;;;9.80;7.38;;;;;;;4.09;37.08;101361.94;4173284;28;20034;-62
2022/03/07 00:15:25;;;;;;;9.55;6.93;;;;;;;4.24;37.05;101368.75;4180549;28;20049;-63
2022/03/07 00:17:28;;;;;;;9.18;6.70;;;;;;;4.04;37.21;101362.50;4162855;28;20057;-62
2022/03/07 00:19:32;;;;;;;11.60;6.40;;;;;;;4.08;37.83;101361.88;4178265;28;20037;-62
2022/03/07 00:21:37;;;;;;;9.63;7.07;;;;;;;4.03;37.75;101356.47;4191479;28;20053;-62
2022/03/07 00:23:40;;;;;;;11.60;7.47;;;;;;;4.13;37.68;101361.31;4170224;28;20037;-63
2022/03/07 00:25:43;;;;;;;10.40;7.38;;;;;;;4.15;36.90;101362.28;4178314;28;20048;-62
2022/03/07 00:27:45;;;;;;;11.02;7.38;;;;;;;4.18;37.03;101364.13;4168641;28;20052;-63
2022/03/07 00:29:48;;;;;;;9.30;6.90;;;;;;;4.12;37.18;101366.38;4190146;28;20044;-63
2022/03/07 00:31:51;;;;;;;10.60;7.40;;;;;;;4.09;37.76;101367.09;4164066;28;20046;-63
2022/03/07 00:33:54;;;;;;;10.60;7.10;;;;;;;4.05;38.07;101365.16;4164117;28;20612;-63
2022/03/07 00:35:59;;;;;;;10.35;6.75;;;;;;;4.13;37.17;101368.13;4178903;28;20044;-63
2022/03/07 00:38:01;;;;;;;8.85;6.72;;;;;;;4.04;38.49;101371.09;4170836;28;20449;-63
2022/03/07 00:40:08;;;;;;;11.13;7.05;;;;;;;4.06;38.05;101372.06;4175382;28;20080;-63
2022/03/07 00:42:11;;;;;;;10.23;6.53;;;;;;;4.02;37.76;101367.56;4169193;28;20048;-63
2022/03/07 00:44:14;;;;;;;9.30;6.82;;;;;;;3.99;37.59;101375.09;4173799;28;20045;-63
2022/03/07 00:46:17;;;;;;;9.55;6.72;;;;;;;4.03;37.53;101364.19;4180425;28;20049;-62
2022/03/07 00:48:20;;;;;;;9.75;7.25;;;;;;;3.91;37.33;101366.94;4187649;28;20045;-62
2022/03/07 00:50:23;;;;;;;11.05;6.78;;;;;;;4.05;37.15;101370.28;4178524;28;20045;-62
2022/03/07 00:52:27;;;;;;;9.02;7.25;;;;;;;4.11;37.01;101364.59;4163217;28;20049;-62
2022/03/07 00:54:30;;;;;;;9.38;7.25;;;;;;;3.96;36.74;101374.94;4166043;28;20068;-62
2022/03/07 00:56:32;;;;;;;9.50;6.43;;;;;;;3.96;36.48;101370.66;4178594;28;20597;-63
2022/03/07 00:58:35;;;;;;;10.80;7.05;;;;;;;3.83;37.06;101368.22;4170651;28;20041;-62
2022/03/07 01:00:38;;;;;;;9.73;7.15;;;;;;;3.83;37.01;101369.09;4179073;28;20037;-62
2022/03/07 01:02:42;;;;;;;9.32;6.97;;;;;;;4.04;36.94;101370.22;4162224;28;20114;-63
2022/03/07 01:04:45;;;;;;;9.65;6.90;;;;;;;3.94;36.71;101372.28;4178912;28;20049;-62
2022/03/07 01:06:50;;;;;;;10.90;7.28;;;;;;;3.93;38.07;101374.75;4188785;28;20546;-62
2022/03/07 01:08:55;;;;;;;10.13;6.70;;;;;;;3.87;37.93;101369.25;4174589;28;20067;-62
2022/03/07 01:10:58;;;;;;;11.00;6.97;;;;;;;4.04;37.30;101363.38;4190245;28;20720;-62
2022/03/07 01:13:01;;;;;;;10.15;7.68;;;;;;;3.99;37.79;101364.81;4163443;28;20042;-62
2022/03/07 01:15:05;;;;;;;11.48;6.97;;;;;;;3.97;37.79;101362.16;4180445;28;20410;-62
2022/03/07 01:17:08;;;;;;;10.07;7.57;;;;;;;3.87;37.91;101372.75;4173495;28;20053;-62
2022/03/07 01:19:11;;;;;;;10.65;7.32;;;;;;;3.97;38.19;101371.53;4181667;28;20040;-62
2022/03/07 01:21:14;;;;;;;11.30;7.20;;;;;;;4.10;37.90;101363.69;4178167;28;20041;-63
2022/03/07 01:23:17;;;;;;;12.35;7.50;;;;;;;3.82;38.69;101367.31;4194245;28;20044;-62
2022/03/07 01:25:21;;;;;;;9.75;7.05;;;;;;;3.88;39.11;101368.47;4182295;28;20068;-62
2022/03/07 01:27:24;;;;;;;12.65;7.47;;;;;;;3.96;38.65;101365.53;4170660;28;20029;-62
2022/03/07 01:29:26;;;;;;;11.40;8.02;;;;;;;3.88;39.01;101360.75;4197069;28;20044;-62
2022/03/07 01:31:29;;;;;;;12.15;8.00;;;;;;;3.90;39.72;101361.72;4180699;28;20053;-63
2022/03/07 01:33:32;;;;;;;9.55;7.63;;;;;;;4.07;38.65;101360.97;4179633;28;20095;-62
2022/03/07 01:35:34;;;;;;;9.30;7.40;;;;;;;3.88;38.67;101360.75;4182111;28;20048;-63
2022/03/07 01:37:37;;;;;;;13.60;8.10;;;;;;;3.87;39.37;101365.03;4192279;28;20127;-62
2022/03/07 01:39:40;;;;;;;13.35;9.50;;;;;;;3.85;41.14;101361.47;4165675;28;20100;-62
2022/03/07 01:41:44;;;;;;;15.80;10.50;;;;;;;3.80;41.93;101362.91;4166700;28;20453;-62
2022/03/07 01:43:47;;;;;;;17.65;10.88;;;;;;;3.91;43.15;101355.78;4181263;28;20045;-63
2022/03/07 01:45:50;;;;;;;19.50;10.30;;;;;;;3.88;43.91;101366.78;4176775;28;20037;-63
2022/03/07 01:47:53;;;;;;;16.40;10.38;;;;;;;3.78;43.67;101369.63;4178686;28;20679;-63
2022/03/07 01:49:57;;;;;;;15.23;9.80;;;;;;;3.76;43.61;101366.97;4167472;28;20124;-63
2022/03/07 01:52:04;;;;;;;15.10;9.85;;;;;;;3.75;43.86;101359.16;4179828;28;20049;-63
2022/03/07 01:54:09;;;;;;;13.18;9.25;;;;;;;3.75;43.93;101360.09;4181228;28;20067;-63
2022/03/07 01:56:12;;;;;;;14.85;10.13;;;;;;;3.68;44.56;101352.81;4198192;28;20071;-63
2022/03/07 01:58:16;;;;;;;14.57;9.35;;;;;;;3.52;44.90;101350.16;4181574;28;20123;-63
2022/03/07 02:00:21;;;;;;;15.10;8.90;;;;;;;3.33;44.82;101351.69;4165448;28;20072;-63
2022/03/07 02:02:24;;;;;;;12.43;8.77;;;;;;;3.36;44.67;101359.56;4184579;28;20724;-63
2022/03/07 02:04:28;;;;;;;13.15;8.82;;;;;;;3.34;45.59;101350.88;4174568;28;20044;-62
2022/03/07 02:06:32;;;;;;;11.65;8.32;;;;;;;3.56;43.63;101346.97;4177272;28;20041;-63
2022/03/07 02:08:34;;;;;;;11.82;8.63;;;;;;;3.53;44.21;101344.22;4181442;28;20130;-63
2022/03/07 02:10:44;;;;;;;14.65;8.32;;;;;;;3.38;44.38;101357.09;4167557;28;20440;-63
2022/03/07 02:12:49;;;;;;;13.63;8.77;;;;;;;3.53;44.32;101349.34;4164415;28;20465;-62
2022/03/07 02:14:53;;;;;;;11.13;7.80;;;;;;;3.46;44.33;101346.44;4179061;28;20131;-62
2022/03/07 02:16:56;;;;;;;11.65;8.50;;;;;;;3.50;44.68;101344.91;4180368;28;20525;-62
2022/03/07 02:18:58;;;;;;;13.35;8.10;;;;;;;3.49;44.79;101346.63;4177004;28;20041;-63
2022/03/07 02:21:14;;;;;;;10.52;7.35;;;;;;;3.48;44.71;101344.84;4180856;28;20040;-63
2022/03/07 02:23:36;;;;;;;12.35;7.50;;;;;;;3.42;44.42;101341.91;4164529;28;20045;-62
2022/03/07 02:25:39;;;;;;;13.80;8.25;;;;;;;3.37;44.69;101351.03;4181499;28;20071;-62
2022/03/07 02:27:42;;;;;;;11.68;7.43;;;;;;;3.23;45.09;101349.38;4172419;28;20037;-62
2022/03/07 02:29:45;;;;;;;10.55;7.40;;;;;;;3.22;45.67;101353.63;4181766;28;20041;-62
2022/03/07 02:31:54;;;;;;;10.43;7.53;;;;;;;3.26;45.01;101353.00;4180049;28;20139;-62
2022/03/07 02:33:57;;;;;;;11.73;7.27;;;;;;;3.47;44.53;101345.63;4179372;28;20498;-62
2022/03/07 02:36:01;;;;;;;11.27;7.28;;;;;;;3.39;44.76;101343.41;4181213;28;20044;-62
2022/03/07 02:38:04;;;;;;;12.63;6.90;;;;;;;3.32;44.24;101357.63;4168782;28;20503;-62
2022/03/07 02:40:09;;;;;;;9.45;6.45;;;;;;;3.35;44.43;101351.78;4180938;28;20044;-63
2022/03/07 02:42:19;;;;;;;9.90;6.53;;;;;;;3.09;44.76;101344.28;4189216;28;20506;-62
2022/03/07 02:44:23;;;;;;;9.00;6.20;;;;;;;3.07;44.64;101352.72;4180779;28;20482;-62
2022/03/07 02:46:25;;;;;;;9.32;6.00;;;;;;;3.29;44.14;101354.88;4168978;28;20033;-62
2022/03/07 02:48:28;;;;;;;9.30;5.60;;;;;;;3.28;43.34;101360.78;4178138;28;20067;-62
2022/03/07 02:50:31;;;;;;;10.18;5.80;;;;;;;3.06;44.03;101353.53;4180734;28;20518;-62
2022/03/07 02:52:34;;;;;;;10.18;5.47;;;;;;;3.10;43.74;101358.94;4177619;28;20442;-63
2022/03/07 02:54:38;;;;;;;8.05;5.30;;;;;;;3.12;43.24;101356.44;4169376;28;20568;-62
2022/03/07 02:56:42;;;;;;;6.82;5.18;;;;;;;3.03;43.32;101368.75;4181977;28;20040;-62
2022/03/07 02:58:45;;;;;;;12.50;4.95;;;;;;;2.98;43.29;101365.91;4176765;28;20087;-63
2022/03/07 03:00:48;;;;;;;8.38;5.10;;;;;;;2.92;43.48;101371.56;4171327;28;20443;-62
2022/03/07 03:02:50;;;;;;;7.10;4.78;;;;;;;2.82;43.87;101364.13;4177534;28;20119;-62
2022/03/07 03:04:53;;;;;;;8.35;4.93;;;;;;;2.66;44.56;101371.66;4181261;28;20095;-62
2022/03/07 03:06:56;;;;;;;7.47;4.70;;;;;;;2.66;44.46;101367.44;4181431;28;20041;-62
2022/03/07 03:08:59;;;;;;;7.97;4.85;;;;;;;2.72;44.69;101362.66;4171070;28;20079;-63
2022/03/07 03:11:02;;;;;;;7.20;4.88;;;;;;;2.64;45.36;101357.84;4171443;28;20479;-62
2022/03/07 03:13:06;;;;;;;7.93;4.72;;;;;;;2.67;44.89;101356.34;4175237;28;20040;-62
2022/03/07 03:15:09;;;;;;;9.95;5.05;;;;;;;2.56;45.43;101359.97;4177157;28;20589;-63
2022/03/07 03:17:12;;;;;;;6.65;4.30;;;;;;;2.48;45.71;101363.72;4180592;28;20422;-62
2022/03/07 03:19:15;;;;;;;7.90;4.78;;;;;;;2.59;45.39;101363.59;4179002;28;20045;-62
2022/03/07 03:21:20;;;;;;;6.85;4.28;;;;;;;2.65;45.09;101363.09;4181785;28;20049;-63
2022/03/07 03:23:23;;;;;;;7.80;4.07;;;;;;;2.48;45.45;101368.88;4181052;28;20099;-62
2022/03/07 03:25:29;;;;;;;6.55;4.15;;;;;;;2.66;44.91;101369.09;4166044;28;20397;-62
2022/03/07 03:27:32;;;;;;;6.68;4.55;;;;;;;2.56;45.29;101367.66;4175356;28;20054;-62
2022/03/07 03:29:36;;;;;;;8.70;4.82;;;;;;;2.55;45.12;101373.59;4180415;28;20033;-62
2022/03/07 03:31:38;;;;;;;8.17;4.30;;;;;;;2.51;44.93;101369.97;4179294;28;20053;-62
2022/03/07 03:33:42;;;;;;;6.85;5.10;;;;;;;2.47;45.18;101373.13;4168522;28;20059;-62
2022/03/07 03:35:45;;;;;;;5.68;3.92;;;;;;;2.47;44.89;101382.47;4178588;28;20041;-62
2022/03/07 03:37:47;;;;;;;6.38;4.25;;;;;;;2.48;45.15;101376.56;4178512;28;20106;-63
2022/03/07 03:39:50;;;;;;;7.22;3.90;;;;;;;2.57;44.55;101378.03;4179612;28;20079;-63
2022/03/07 03:41:53;;;;;;;6.03;4.03;;;;;;;2.33;44.87;101374.81;4176648;28;20453;-62
2022/03/07 03:43:55;;;;;;;6.93;4.25;;;;;;;2.34;45.16;101384.28;4179445;28;20396;-63
2022/03/07 03:45:59;;;;;;;6.95;4.13;;;;;;;2.34;45.24;101374.03;4180100;28;20489;-63
2022/03/07 03:48:03;;;;;;;6.25;3.90;;;;;;;2.19;45.19;101380.75;4180630;28;20049;-62
2022/03/07 03:50:08;;;;;;;6.57;4.10;;;;;;;2.55;44.72;101379.59;4166474;28;20929;-62
2022/03/07 03:52:11;;;;;;;7.13;4.47;;;;;;;2.55;44.18;101388.97;4180482;28;20037;-62
2022/03/07 03:54:14;;;;;;;5.75;3.38;;;;;;;2.26;44.34;101381.25;4179806;28;20456;-62
2022/03/07 03:56:16;;;;;;;6.38;3.78;;;;;;;2.16;44.86;101378.00;4177250;28;20045;-62
2022/03/07 03:58:20;;;;;;;6.20;3.75;;;;;;;2.03;45.55;101392.63;4178062;28;20053;-62
2022/03/07 04:00:23;;;;;;;7.53;4.20;;;;;;;2.17;44.52;101396.06;4179647;28;20048;-62
2022/03/07 04:02:27;;;;;;;6.43;4.18;;;;;;;2.32;44.21;101397.81;4164967;28;20050;-62
2022/03/07 04:04:31;;;;;;;8.43;4.53;;;;;;;2.41;43.52;101394.16;4173174;28;20053;-62
2022/03/07 04:06:33;;;;;;;13.95;4.05;;;;;;;2.27;44.00;101394.97;4193857;28;20055;-62
2022/03/07 04:08:36;;;;;;;6.35;4.10;;;;;;;2.13;44.03;101399.22;4177736;28;20069;-62
2022/03/07 04:10:39;;;;;;;7.07;4.57;;;;;;;2.15;44.19;101405.34;4176440;28;20037;-62
2022/03/07 04:12:43;;;;;;;7.57;4.47;;;;;;;2.17;43.88;101397.75;4180212;28;20041;-62
2022/03/07 04:14:46;;;;;;;7.53;4.47;;;;;;;2.08;43.88;101398.94;4168279;28;20049;-61
2022/03/07 04:16:49;;;;;;;7.28;4.82;;;;;;;2.14;43.77;101395.88;4178495;28;21946;-62
2022/03/07 04:18:53;;;;;;;6.80;4.25;;;;;;;2.06;43.95;101402.22;4165859;28;20041;-62
2022/03/07 04:20:56;;;;;;;6.70;4.28;;;;;;;1.90;44.69;101406.34;4171043;28;20085;-61
2022/03/07 04:23:01;;;;;;;6.13;4.10;;;;;;;1.99;44.29;101406.03;4164164;28;20052;-62
2022/03/07 04:25:05;;;;;;;6.82;4.32;;;;;;;2.09;44.08;101405.84;4164479;28;20077;-62
2022/03/07 04:27:08;;;;;;;7.57;4.80;;;;;;;1.94;44.69;101407.41;4176633;28;20033;-62
2022/03/07 04:29:11;;;;;;;7.78;4.25;;;;;;;1.88;44.97;101401.88;4164364;28;20099;-62
2022/03/07 04:31:14;;;;;;;9.00;4.13;;;;;;;2.05;44.42;101403.88;4164178;28;20046;-62
2022/03/07 04:33:16;;;;;;;7.93;4.60;;;;;;;2.05;44.46;101401.31;4163386;28;20045;-61
2022/03/07 04:35:20;;;;;;;8.38;5.40;;;;;;;2.03;44.81;101401.97;4171269;28;20044;-62
2022/03/07 04:37:28;;;;;;;6.95;4.55;;;;;;;1.96;44.85;101410.06;4171106;28;20041;-62
2022/03/07 04:39:31;;;;;;;9.15;5.47;;;;;;;2.04;44.79;101419.16;4164171;28;20049;-62
2022/03/07 04:41:34;;;;;;;6.97;4.80;;;;;;;2.07;44.22;101424.47;4169424;28;20045;-62
2022/03/07 04:43:36;;;;;;;7.65;4.93;;;;;;;2.01;44.07;101419.84;4177505;28;20083;-62
2022/03/07 04:45:39;;;;;;;9.98;5.45;;;;;;;2.07;43.77;101419.34;4178302;28;20564;-64
2022/03/07 04:47:42;;;;;;;8.40;5.57;;;;;;;1.99;44.00;101421.44;4173392;28;20391;-62
2022/03/07 04:49:45;;;;;;;9.55;6.03;;;;;;;2.09;42.43;101428.91;4180631;28;20067;-62
2022/03/07 04:51:49;;;;;;;9.05;6.25;;;;;;;2.08;43.11;101428.81;4179751;28;20410;-62
2022/03/07 04:53:52;;;;;;;9.35;6.07;;;;;;;1.88;43.01;101427.53;4178348;28;20431;-62
2022/03/07 04:55:54;;;;;;;13.50;6.97;;;;;;;1.92;42.88;101435.53;4164082;28;20099;-63
2022/03/07 04:57:57;;;;;;;8.73;6.13;;;;;;;1.95;42.68;101429.72;4167964;28;20037;-63
2022/03/07 05:00:00;;;;;;;10.77;6.72;;;;;;;1.94;42.83;101427.03;4174753;28;20037;-63
2022/03/07 05:02:03;;;;;;;12.55;7.03;;;;;;;1.87;43.18;101438.56;4167838;28;20045;-62
2022/03/07 05:04:06;;;;;;;12.75;5.97;;;;;;;1.83;43.00;101434.06;4163704;28;20499;-62
2022/03/07 05:06:09;;;;;;;14.35;8.30;;;;;;;1.78;43.51;101433.72;4174582;28;20037;-63
2022/03/07 05:08:13;;;;;;;9.75;6.57;;;;;;;1.81;43.19;101436.53;4195080;28;20044;-63
2022/03/07 05:10:16;;;;;;;9.13;5.70;;;;;;;1.83;43.14;101434.94;4179728;28;20029;-63
2022/03/07 05:12:19;;;;;;;10.50;6.75;;;;;;;1.88;42.92;101437.78;4178885;28;20041;-63
2022/03/07 05:14:22;;;;;;;11.52;7.07;;;;;;;1.89;43.13;101439.56;4189036;28;20044;-63
2022/03/07 05:16:25;;;;;;;11.73;7.20;;;;;;;1.78;43.30;101437.97;4178039;28;20099;-63
2022/03/07 05:18:27;;;;;;;10.13;6.90;;;;;;;1.91;42.87;101453.38;4165943;28;20076;-63
2022/03/07 05:20:31;;;;;;;9.52;7.03;;;;;;;1.94;42.37;101448.44;4164067;28;20420;-63
2022/03/07 05:22:54;;;;;;;9.40;6.78;;;;;;;1.70;43.08;101456.31;4163215;28;20419;-63
2022/03/07 05:24:58;;;;;;;9.48;6.03;;;;;;;1.58;43.41;101450.38;4168255;28;20045;-63
2022/03/07 05:27:00;;;;;;;12.20;7.10;;;;;;;1.71;43.61;101452.97;4174916;28;20453;-63
2022/03/07 05:29:04;;;;;;;11.75;6.30;;;;;;;1.72;42.99;101451.28;4170546;28;20805;-63
2022/03/07 05:31:09;;;;;;;11.88;7.50;;;;;;;2.03;41.95;101449.06;4176683;28;20056;-63
2022/03/07 05:33:11;;;;;;;10.43;6.57;;;;;;;1.94;41.83;101453.56;4170853;28;20124;-63
2022/03/07 05:35:15;;;;;;;10.50;7.38;;;;;;;1.90;42.50;101454.19;4169830;28;20156;-62
2022/03/07 05:37:18;;;;;;;10.02;7.25;;;;;;;1.81;42.61;101449.34;4173943;28;20496;-62
2022/03/07 05:39:20;;;;;;;11.52;7.40;;;;;;;1.82;42.04;101455.34;4178101;28;20049;-62
2022/03/07 05:41:24;;;;;;;11.30;7.53;;;;;;;1.81;42.04;101451.91;4180080;28;20045;-62
2022/03/07 05:43:27;;;;;;;11.47;7.27;;;;;;;1.86;41.43;101455.63;4174039;28;20045;-62
2022/03/07 05:45:30;;;;;;;9.73;6.88;;;;;;;1.85;41.94;101455.53;4180034;28;20087;-62
2022/03/07 05:47:33;;;;;;;11.25;7.60;;;;;;;1.65;42.43;101455.13;4173575;28;20561;-62
2022/03/07 05:49:36;;;;;;;10.45;7.43;;;;;;;1.69;41.98;101449.38;4189225;28;20479;-61
2022/03/07 05:51:41;;;;;;;15.88;7.55;;;;;;;1.67;42.15;101453.53;4163265;28;20503;-61
2022/03/07 05:53:43;;;;;;;10.85;6.65;;;;;;;1.63;42.03;101460.94;4176660;28;20098;-62
2022/03/07 05:55:46;;;;;;;10.15;7.03;;;;;;;1.79;41.67;101457.72;4173601;28;20045;-62
2022/03/07 05:57:50;;;;;;;13.23;7.32;;;;;;;1.67;42.33;101456.09;4163728;28;20091;-62
2022/03/07 05:59:53;;;;;;;11.87;7.50;;;;;;;1.77;41.75;101459.25;4163629;28;20034;-61
2022/03/07 06:01:56;;;;;;;11.75;7.25;;;;;;;1.78;41.76;101467.06;4163338;28;20145;-61
2022/03/07 06:03:58;;;;;;;11.63;7.60;;;;;;;1.73;41.71;101463.31;4167957;28;20049;-62
2022/03/07 06:06:01;;;;;;;14.23;8.20;;;;;;;1.71;41.57;101460.66;4181354;28;20041;-61
2022/03/07 06:08:05;;;;;;;12.40;7.70;;;;;;;1.64;41.76;101467.84;4173090;28;20450;-62
2022/03/07 06:10:09;;;;;;;11.43;7.75;;;;;;;1.63;42.33;101468.63;4166555;28;20128;-62
2022/03/07 06:12:11;;;;;;;12.60;8.20;;;;;;;1.79;41.64;101467.97;4180841;28;20079;-62
2022/03/07 06:14:15;;;;;;;12.40;7.70;;;;;;;1.92;40.54;101473.09;4165364;28;20507;-62
2022/03/07 06:16:18;;;;;;;10.90;7.13;;;;;;;1.70;41.40;101465.69;4166454;28;20099;-62
2022/03/07 06:18:21;;;;;;;12.40;8.50;;;;;;;1.72;42.01;101466.66;4166169;28;20045;-62
2022/03/07 06:20:25;;;;;;;10.25;7.25;;;;;;;1.83;41.50;101464.81;4166053;28;20041;-61
2022/03/07 06:22:28;;;;;;;10.80;7.70;;;;;;;1.89;40.53;101476.34;4180334;28;20091;-62
2022/03/07 06:24:30;;;;;;;11.48;7.10;;;;;;;1.72;41.17;101471.78;4174819;28;20295;-62
2022/03/07 06:26:35;;;;;;;13.57;7.97;;;;;;;1.68;41.03;101478.41;4166188;28;20045;-62
2022/03/07 06:28:38;;;;;;;10.98;7.47;;;;;;;1.74;41.22;101476.22;4166201;28;20091;-62
2022/03/07 06:30:42;;;;;;;10.50;7.55;;;;;;;1.78;40.79;101473.88;4173065;28;20049;-62
2022/03/07 06:32:45;;;;;;;13.77;7.22;;;;;;;1.69;40.99;101475.03;4180755;28;20049;-62
2022/03/07 06:34:48;;;;;;;11.73;7.53;;;;;;;1.64;41.28;101483.22;4181079;28;20036;-62
2022/03/07 06:36:51;;;;;;;11.98;7.35;;;;;;;1.62;41.21;101483.13;4180984;28;20049;-62
2022/03/07 06:38:54;;;;;;;12.38;7.80;;;;;;;1.78;40.91;101487.56;4178954;28;20139;-62
2022/03/07 06:40:57;;;;;;;10.45;7.32;;;;;;;1.81;40.83;101492.00;4177583;28;20723;-62
2022/03/07 06:43:00;;;;;;;11.75;7.18;;;;;;;1.57;41.63;101487.03;4180044;28;20065;-62
2022/03/07 06:45:04;;;;;;;13.57;7.25;;;;;;;1.69;41.22;101490.41;4181492;28;20568;-62
2022/03/07 06:47:08;;;;;;;12.48;7.35;;;;;;;1.59;41.48;101490.56;4180135;28;20048;-62
2022/03/07 06:49:11;;;;;;;11.25;8.07;;;;;;;1.48;41.52;101487.31;4179459;28;20045;-62
2022/03/07 06:51:14;;;;;;;11.90;7.00;;;;;;;1.53;42.05;101496.22;4196786;28;20102;-61
2022/03/07 06:53:16;;;;;;;11.95;7.28;;;;;;;1.56;41.90;101500.63;4180433;28;20083;-62
2022/03/07 06:55:24;;;;;;;13.20;7.13;;;;;;;1.59;41.51;101502.50;4181637;28;20072;-62
2022/03/07 06:57:27;;;;;;;12.15;6.95;;;;;;;1.50;41.92;101505.34;4181340;28;20044;-62
2022/03/07 06:59:30;;;;;;;11.18;7.05;;;;;;;1.50;42.04;101510.47;4180675;28;20087;-62
2022/03/07 07:01:33;;;;;;;12.55;7.10;;;;;;;1.55;42.23;101509.13;4181110;28;20403;-62
2022/03/07 07:03:37;;;;;;;10.05;6.45;;;;;;;1.56;41.98;101500.63;4180326;28;20055;-62
2022/03/07 07:05:40;;;;;;;9.80;7.13;;;;;;;1.50;42.43;101505.34;4181226;28;20128;-61
2022/03/07 07:07:44;;;;;;;10.32;7.13;;;;;;;1.70;42.23;101509.25;4181165;28;20557;-62
2022/03/07 07:09:47;;;;;;;10.15;6.65;;;;;;;1.77;41.02;101511.44;4180956;28;20036;-62
2022/03/07 07:11:50;;;;;;;12.00;7.20;;;;;;;1.83;40.97;101513.53;4178555;28;20099;-62
2022/03/07 07:13:52;;;;;;;10.65;6.60;;;;;;;1.55;41.26;101507.44;4179001;28;20560;-62
2022/03/07 07:15:55;;;;;;;12.00;7.30;;;;;;;1.70;40.85;101509.25;4184229;28;20041;-62
2022/03/07 07:17:58;;;;;;;10.73;7.32;;;;;;;1.60;41.46;101515.44;4195337;28;20044;-62
2022/03/07 07:20:03;;;;;;;10.50;7.35;;;;;;;1.67;40.96;101512.50;4179782;28;20041;-62
2022/03/07 07:22:06;;;;;;;;;;;;;;;1.52;41.34;101511.44;4180298;28;20048;-62
2022/03/07 07:24:09;;;;;;;10.00;6.97;;;;;;;1.61;40.60;101518.88;4180897;28;19920;-61
2022/03/07 07:26:12;;;;;;;9.32;6.88;;;;;;;1.54;41.06;101520.16;4180880;28;20471;-62
2022/03/07 07:28:15;;;;;;;16.23;7.65;;;;;;;1.60;40.85;101517.13;4180805;28;20079;-61
2022/03/07 07:30:18;;;;;;;10.85;6.97;;;;;;;1.48;40.61;101518.06;4195740;28;20041;-62
2022/03/07 07:32:21;;;;;;;11.63;7.30;;;;;;;1.69;40.45;101512.59;4171956;28;20067;-62
2022/03/07 07:34:23;;;;;;;10.60;7.10;;;;;;;1.39;41.10;101526.00;4179464;28;20037;-62
2022/03/07 07:36:27;;;;;;;12.68;7.03;;;;;;;1.57;40.41;101520.34;4175730;28;20446;-62
2022/03/07 07:38:30;;;;;;;12.38;7.50;;;;;;;1.64;40.56;101525.09;4177964;28;20041;-62
2022/03/07 07:40:33;;;;;;;11.55;7.10;;;;;;;1.56;41.53;101518.56;4179554;28;20565;-62
2022/03/07 07:42:35;;;;;;;15.80;7.43;;;;;;;1.71;40.66;101516.16;4179679;28;20041;-62
2022/03/07 07:44:42;;;;;;;11.07;6.93;;;;;;;1.66;40.71;101523.53;4178060;28;20049;-62
2022/03/07 07:46:45;;;;;;;11.98;6.78;;;;;;;1.70;41.14;101524.63;4178900;28;20095;-62
2022/03/07 07:48:48;;;;;;;9.68;6.65;;;;;;;1.73;41.38;101525.72;4179854;28;20513;-62
2022/03/07 07:50:51;;;;;;;12.43;7.15;;;;;;;1.97;40.49;101530.72;4180459;28;20044;-62
2022/03/07 07:52:55;;;;;;;12.60;7.18;;;;;;;1.94;39.83;101527.06;4179415;28;20041;-62
2022/03/07 07:54:58;;;;;;;10.55;6.53;;;;;;;1.96;40.17;101543.41;4168945;28;20739;-62
2022/03/07 07:57:02;;;;;;;12.50;7.07;;;;;;;1.89;39.76;101532.75;4174969;28;20596;-62
2022/03/07 07:59:05;;;;;;;12.73;7.13;;;;;;;1.92;39.76;101547.47;4178010;28;20449;-62
2022/03/07 08:01:07;;;;;;;11.05;6.95;;;;;;;1.73;41.03;101535.97;4179047;28;20490;-62
2022/03/07 08:03:10;;;;;;;14.43;7.65;;;;;;;1.88;40.29;101543.81;4174483;28;20056;-62
2022/03/07 08:05:13;;;;;;;10.50;7.15;;;;;;;1.91;39.92;101532.84;4177867;28;20037;-62
2022/03/07 08:07:16;;;;;;;13.15;6.95;;;;;;;1.97;40.48;101548.69;4176155;28;20044;-62
2022/03/07 08:09:20;;;;;;;13.20;7.18;;;;;;;1.90;39.91;101549.94;4177693;28;20096;-62
2022/03/07 08:11:23;;;;;;;10.77;6.60;;;;;;;1.98;40.27;101541.88;4173696;28;20039;-62
2022/03/07 08:13:25;;;;;;;10.23;6.53;;;;;;;2.06;40.32;101546.72;4173698;28;20295;-62
2022/03/07 08:15:29;;;;;;;11.95;7.13;;;;;;;2.06;40.09;101545.84;4171102;28;20116;-61
2022/03/07 08:17:32;;;;;;;10.43;7.40;;;;;;;2.03;40.26;101546.50;4179682;28;20044;-62
2022/03/07 08:19:35;;;;;;;14.77;7.30;;;;;;;2.03;39.92;101536.25;4166857;28;20049;-62
2022/03/07 08:21:38;;;;;;;11.48;7.50;;;;;;;2.19;39.59;101550.97;4177818;28;20419;-62
2022/03/07 08:23:41;;;;;;;14.75;7.63;;;;;;;2.08;39.56;101541.69;4179500;28;20429;-62
2022/03/07 08:25:45;;;;;;;13.13;7.05;;;;;;;2.06;40.19;101540.72;4175387;28;20438;-62
2022/03/07 08:27:48;;;;;;;9.63;6.43;;;;;;;2.17;39.85;101549.09;4178427;28;20701;-62
2022/03/07 08:29:51;;;;;;;12.88;7.40;;;;;;;2.21;39.95;101540.81;4175936;28;20045;-61
2022/03/07 08:31:56;;;;;;;10.70;7.63;;;;;;;1.95;40.33;101542.53;4179434;28;20083;-62
2022/03/07 08:33:59;;;;;;;17.88;7.85;;;;;;;2.16;40.02;101542.19;4166466;28;20580;-62
2022/03/07 08:36:01;;;;;;;12.30;7.85;;;;;;;1.98;40.84;101537.63;4174980;28;20045;-62
2022/03/07 08:38:04;;;;;;;11.63;8.02;;;;;;;2.00;41.57;101545.41;4178624;28;20125;-62
2022/03/07 08:40:10;;;;;;;10.52;7.05;;;;;;;2.26;40.31;101539.41;4180335;28;20041;-62
2022/03/07 08:42:14;;;;;;;12.55;8.25;;;;;;;2.51;39.85;101541.91;4168625;28;20135;-62
2022/03/07 08:44:16;;;;;;;10.93;7.18;;;;;;;2.55;39.30;101538.75;4174704;28;20088;-62
2022/03/07 08:46:19;;;;;;;13.23;7.50;;;;;;;2.59;38.95;101540.72;4169539;28;20529;-62
2022/03/07 08:48:22;;;;;;;13.02;8.38;;;;;;;2.61;39.00;101540.81;4169987;28;20053;-62
2022/03/07 08:50:25;;;;;;;14.07;8.32;;;;;;;2.54;39.27;101542.13;4171874;28;20083;-62
2022/03/07 08:52:28;;;;;;;12.85;7.75;;;;;;;2.60;39.42;101539.06;4174331;28;20044;-62
2022/03/07 08:54:30;;;;;;;11.52;7.15;;;;;;;2.60;38.79;101541.63;4192881;28;20053;-61
2022/03/07 08:56:33;;;;;;;10.45;7.07;;;;;;;2.61;38.41;101544.28;4171289;28;20533;-62
2022/03/07 08:58:37;;;;;;;10.65;7.15;;;;;;;2.58;38.92;101548.31;4169876;28;20048;-62
2022/03/07 09:00:40;;;;;;;10.70;7.15;;;;;;;2.60;38.22;101539.94;4172305;28;20407;-62
2022/03/07 09:02:43;;;;;;;10.98;6.97;;;;;;;2.60;38.87;101536.50;4177270;28;20479;-62
2022/03/07 09:04:46;;;;;;;10.88;7.43;;;;;;;2.78;38.70;101541.91;4188162;28;20147;-62
2022/03/07 09:06:48;;;;;;;11.73;7.72;;;;;;;2.95;37.76;101545.53;4177337;28;20052;-62
2022/03/07 09:08:51;;;;;;;12.05;8.13;;;;;;;2.88;37.63;101538.22;4180294;28;20095;-62
2022/03/07 09:10:57;;;;;;;13.55;9.20;;;;;;;2.90;37.75;101550.34;4170009;28;20064;-62
2022/03/07 09:13:00;;;;;;;14.63;7.60;;;;;;;2.91;37.87;101543.56;4173878;28;20041;-62
2022/03/07 09:15:06;;;;;;;9.45;7.15;;;;;;;2.88;38.12;101549.38;4180092;28;20534;-62
2022/03/07 09:17:09;;;;;;;10.52;7.30;;;;;;;3.05;37.43;101550.44;4180203;28;20053;-62
2022/03/07 09:19:12;;;;;;;8.95;7.10;;;;;;;3.31;37.00;101556.28;4178329;28;20476;-62
2022/03/07 09:21:14;;;;;;;11.50;7.88;;;;;;;3.26;36.37;101555.13;4171379;28;20053;-62
2022/03/07 09:23:17;;;;;;;9.23;6.80;;;;;;;3.04;37.08;101553.81;4179236;28;20048;-62
2022/03/07 09:25:20;;;;;;;15.20;7.55;;;;;;;2.91;38.57;101558.97;4174663;28;20096;-62
2022/03/07 09:27:22;;;;;;;9.05;6.97;;;;;;;3.02;38.13;101552.81;4177840;28;20044;-62
2022/03/07 09:29:26;;;;;;;10.10;7.05;;;;;;;3.32;38.03;101556.38;4180092;28;20454;-62
2022/03/07 09:31:34;;;;;;;10.95;7.90;;;;;;;3.47;38.17;101551.28;4171580;28;20038;-62
2022/03/07 09:33:38;;;;;;;9.48;6.90;;;;;;;3.54;38.69;101554.25;4178589;28;20556;-61
2022/03/07 09:35:40;;;;;;;10.07;7.30;;;;;;;3.71;38.04;101553.56;4178765;28;20045;-62
2022/03/07 09:37:43;;;;;;;9.20;7.45;;;;;;;3.88;37.48;101559.69;4170462;28;20042;-62